Terminal Aerodrome Forecast
Issued by NWS

Home | Current Version | Previous Version | Text Only | Print | Product List | Glossary On
Versions: 1 2 3 4 5 6 7 8 9 10 11 12 13 14 15 16 17 18 19 20 21 22 23
826
FTUS41 KGYX 181932 AAA
TAFAUG
TAF AMD
KAUG 181932Z 1820/1918 02007KT P6SM -SHSN SCT025 OVC050
      TEMPO 1821/1823 3SM -SHSN BR BKN025 OVC040
     FM182300 04007KT 4SM BR SCT020 OVC050
     FM190200 06004KT 2SM -SHSN BR OVC012
     FM191200 VRB03KT 4SM BR OVC015=

USA.gov is the U.S. government's official web portal to all federal, state and local government web resources and services.